sensor_id;sensor_type;location;lat;lon;timestamp;temperature;humidity
8338;DHT22;4206;48.634;9.516;2022-12-29T00:01:08;10.50;99.90
8338;DHT22;4206;48.634;9.516;2022-12-29T00:03:34;10.60;99.90
8338;DHT22;4206;48.634;9.516;2022-12-29T00:05:59;10.60;99.90
8338;DHT22;4206;48.634;9.516;2022-12-29T00:08:26;10.60;99.90
8338;DHT22;4206;48.634;9.516;2022-12-29T00:11:10;10.60;99.90
8338;DHT22;4206;48.634;9.516;2022-12-29T00:13:36;10.60;99.90
8338;DHT22;4206;48.634;9.516;2022-12-29T00:16:17;10.60;99.90
8338;DHT22;4206;48.634;9.516;2022-12-29T00:18:43;10.60;99.90
8338;DHT22;4206;48.634;9.516;2022-12-29T00:21:13;10.60;99.90
8338;DHT22;4206;48.634;9.516;2022-12-29T00:23:55;10.60;99.90
8338;DHT22;4206;48.634;9.516;2022-12-29T00:26:36;10.60;99.90
8338;DHT22;4206;48.634;9.516;2022-12-29T00:29:17;10.60;99.90
8338;DHT22;4206;48.634;9.516;2022-12-29T00:31:58;10.80;99.90
8338;DHT22;4206;48.634;9.516;2022-12-29T00:34:40;10.90;99.90
8338;DHT22;4206;48.634;9.516;2022-12-29T00:37:20;10.90;99.90
8338;DHT22;4206;48.634;9.516;2022-12-29T00:40:06;10.90;99.90
8338;DHT22;4206;48.634;9.516;2022-12-29T00:42:48;10.80;99.90
8338;DHT22;4206;48.634;9.516;2022-12-29T00:45:29;10.80;99.90
8338;DHT22;4206;48.634;9.516;2022-12-29T00:47:54;10.70;99.90
8338;DHT22;4206;48.634;9.516;2022-12-29T00:50:20;10.60;99.90
8338;DHT22;4206;48.634;9.516;2022-12-29T00:52:46;10.50;99.90
8338;DHT22;4206;48.634;9.516;2022-12-29T00:55:11;10.50;99.90
8338;DHT22;4206;48.634;9.516;2022-12-29T00:57:37;10.70;99.90
8338;DHT22;4206;48.634;9.516;2022-12-29T01:00:03;10.90;99.90
8338;DHT22;4206;48.634;9.516;2022-12-29T01:02:28;10.90;99.90
8338;DHT22;4206;48.634;9.516;2022-12-29T01:04:54;10.80;99.90
8338;DHT22;4206;48.634;9.516;2022-12-29T01:07:19;10.70;99.90
8338;DHT22;4206;48.634;9.516;2022-12-29T01:09:45;10.80;99.90
8338;DHT22;4206;48.634;9.516;2022-12-29T01:12:26;10.70;99.90
8338;DHT22;4206;48.634;9.516;2022-12-29T01:15:09;10.60;99.90
8338;DHT22;4206;48.634;9.516;2022-12-29T01:17:36;10.60;99.90
8338;DHT22;4206;48.634;9.516;2022-12-29T01:20:02;10.70;99.90
8338;DHT22;4206;48.634;9.516;2022-12-29T01:22:28;10.70;99.90
8338;DHT22;4206;48.634;9.516;2022-12-29T01:24:54;10.80;99.90
8338;DHT22;4206;48.634;9.516;2022-12-29T01:27:19;10.80;99.90
8338;DHT22;4206;48.634;9.516;2022-12-29T01:29:45;10.80;99.90
8338;DHT22;4206;48.634;9.516;2022-12-29T01:32:10;10.80;99.90
8338;DHT22;4206;48.634;9.516;2022-12-29T01:34:36;10.90;99.90
8338;DHT22;4206;48.634;9.516;2022-12-29T01:37:02;10.80;99.90
8338;DHT22;4206;48.634;9.516;2022-12-29T01:39:27;10.80;99.90
8338;DHT22;4206;48.634;9.516;2022-12-29T01:41:53;10.80;99.90
8338;DHT22;4206;48.634;9.516;2022-12-29T01:47:24;10.80;99.90
8338;DHT22;4206;48.634;9.516;2022-12-29T01:49:54;11.00;99.90
8338;DHT22;4206;48.634;9.516;2022-12-29T01:52:21;11.00;99.90
8338;DHT22;4206;48.634;9.516;2022-12-29T01:54:51;11.00;99.90
8338;DHT22;4206;48.634;9.516;2022-12-29T01:57:21;10.70;99.90
8338;DHT22;4206;48.634;9.516;2022-12-29T01:59:55;10.70;99.90
8338;DHT22;4206;48.634;9.516;2022-12-29T02:02:22;10.70;99.90
8338;DHT22;4206;48.634;9.516;2022-12-29T02:04:48;10.90;99.90
8338;DHT22;4206;48.634;9.516;2022-12-29T02:07:19;10.90;99.90
8338;DHT22;4206;48.634;9.516;2022-12-29T02:09:48;10.80;99.90
8338;DHT22;4206;48.634;9.516;2022-12-29T02:12:14;10.70;99.90
8338;DHT22;4206;48.634;9.516;2022-12-29T02:14:40;10.70;99.90
8338;DHT22;4206;48.634;9.516;2022-12-29T02:41:02;10.40;99.90
8338;DHT22;4206;48.634;9.516;2022-12-29T02:48:56;10.80;99.90
8338;DHT22;4206;48.634;9.516;2022-12-29T02:51:29;10.80;99.90
8338;DHT22;4206;48.634;9.516;2022-12-29T02:53:57;10.70;99.90
8338;DHT22;4206;48.634;9.516;2022-12-29T02:56:39;10.70;99.90
8338;DHT22;4206;48.634;9.516;2022-12-29T02:59:05;10.80;99.90
8338;DHT22;4206;48.634;9.516;2022-12-29T03:12:14;10.80;99.90
8338;DHT22;4206;48.634;9.516;2022-12-29T03:14:58;10.90;99.90
8338;DHT22;4206;48.634;9.516;2022-12-29T03:17:46;11.00;99.90
8338;DHT22;4206;48.634;9.516;2022-12-29T03:20:18;10.90;99.90
8338;DHT22;4206;48.634;9.516;2022-12-29T03:22:48;10.90;99.90
8338;DHT22;4206;48.634;9.516;2022-12-29T03:25:16;10.90;99.90
8338;DHT22;4206;48.634;9.516;2022-12-29T03:27:48;11.00;99.90
8338;DHT22;4206;48.634;9.516;2022-12-29T03:30:14;10.80;99.90
8338;DHT22;4206;48.634;9.516;2022-12-29T03:32:45;10.80;99.90
8338;DHT22;4206;48.634;9.516;2022-12-29T03:35:14;10.70;99.90
8338;DHT22;4206;48.634;9.516;2022-12-29T03:37:45;10.60;99.90
8338;DHT22;4206;48.634;9.516;2022-12-29T03:40:14;10.50;99.90
8338;DHT22;4206;48.634;9.516;2022-12-29T03:42:41;10.40;99.90
8338;DHT22;4206;48.634;9.516;2022-12-29T03:45:07;10.40;99.90
8338;DHT22;4206;48.634;9.516;2022-12-29T03:47:33;10.40;99.90
8338;DHT22;4206;48.634;9.516;2022-12-29T03:49:59;10.30;99.90
8338;DHT22;4206;48.634;9.516;2022-12-29T03:52:24;10.20;99.90
8338;DHT22;4206;48.634;9.516;2022-12-29T03:54:50;10.10;99.90
8338;DHT22;4206;48.634;9.516;2022-12-29T03:57:15;10.20;99.90
8338;DHT22;4206;48.634;9.516;2022-12-29T03:59:41;10.30;99.90
8338;DHT22;4206;48.634;9.516;2022-12-29T04:02:07;10.30;99.90
8338;DHT22;4206;48.634;9.516;2022-12-29T04:04:32;10.10;99.90
8338;DHT22;4206;48.634;9.516;2022-12-29T04:06:58;10.00;99.90
8338;DHT22;4206;48.634;9.516;2022-12-29T04:09:23;10.00;99.90
8338;DHT22;4206;48.634;9.516;2022-12-29T04:11:49;10.10;99.90
8338;DHT22;4206;48.634;9.516;2022-12-29T04:14:15;10.40;99.90
8338;DHT22;4206;48.634;9.516;2022-12-29T04:16:40;10.20;99.90
8338;DHT22;4206;48.634;9.516;2022-12-29T04:19:06;10.20;99.90
8338;DHT22;4206;48.634;9.516;2022-12-29T04:21:32;10.20;99.90
8338;DHT22;4206;48.634;9.516;2022-12-29T04:23:58;10.10;99.90
8338;DHT22;4206;48.634;9.516;2022-12-29T04:26:24;10.10;99.90
8338;DHT22;4206;48.634;9.516;2022-12-29T04:28:49;10.10;99.90
8338;DHT22;4206;48.634;9.516;2022-12-29T04:31:15;10.40;99.90
8338;DHT22;4206;48.634;9.516;2022-12-29T04:33:40;10.40;99.90
8338;DHT22;4206;48.634;9.516;2022-12-29T04:36:06;10.60;99.90
8338;DHT22;4206;48.634;9.516;2022-12-29T04:38:32;10.40;99.90
8338;DHT22;4206;48.634;9.516;2022-12-29T04:41:00;10.30;99.90
8338;DHT22;4206;48.634;9.516;2022-12-29T04:43:26;10.30;99.90
8338;DHT22;4206;48.634;9.516;2022-12-29T04:45:52;10.20;99.90
8338;DHT22;4206;48.634;9.516;2022-12-29T04:48:17;10.20;99.90
8338;DHT22;4206;48.634;9.516;2022-12-29T04:50:43;10.20;99.90
8338;DHT22;4206;48.634;9.516;2022-12-29T04:53:09;10.20;99.90
8338;DHT22;4206;48.634;9.516;2022-12-29T04:55:35;10.10;99.90
8338;DHT22;4206;48.634;9.516;2022-12-29T04:58:00;10.00;99.90
8338;DHT22;4206;48.634;9.516;2022-12-29T05:00:26;10.20;99.90
8338;DHT22;4206;48.634;9.516;2022-12-29T05:02:53;10.20;99.90
8338;DHT22;4206;48.634;9.516;2022-12-29T05:05:18;10.10;99.90
8338;DHT22;4206;48.634;9.516;2022-12-29T05:07:44;10.00;99.90
8338;DHT22;4206;48.634;9.516;2022-12-29T05:10:10;10.10;99.90
8338;DHT22;4206;48.634;9.516;2022-12-29T05:12:37;10.10;99.90
8338;DHT22;4206;48.634;9.516;2022-12-29T05:15:04;10.00;99.90
8338;DHT22;4206;48.634;9.516;2022-12-29T05:17:30;9.80;99.90
8338;DHT22;4206;48.634;9.516;2022-12-29T05:19:56;9.70;99.90
8338;DHT22;4206;48.634;9.516;2022-12-29T05:22:22;9.80;99.90
8338;DHT22;4206;48.634;9.516;2022-12-29T05:24:48;9.70;99.90
8338;DHT22;4206;48.634;9.516;2022-12-29T05:27:13;9.60;99.90
8338;DHT22;4206;48.634;9.516;2022-12-29T05:29:39;9.80;99.90
8338;DHT22;4206;48.634;9.516;2022-12-29T05:32:05;9.90;99.90
8338;DHT22;4206;48.634;9.516;2022-12-29T05:34:31;9.90;99.90
8338;DHT22;4206;48.634;9.516;2022-12-29T05:36:56;10.10;99.90
8338;DHT22;4206;48.634;9.516;2022-12-29T05:39:22;10.20;99.90
8338;DHT22;4206;48.634;9.516;2022-12-29T05:41:48;10.20;99.90
8338;DHT22;4206;48.634;9.516;2022-12-29T05:44:13;10.30;99.90
8338;DHT22;4206;48.634;9.516;2022-12-29T05:46:39;10.30;99.90
8338;DHT22;4206;48.634;9.516;2022-12-29T05:49:05;10.20;99.90
8338;DHT22;4206;48.634;9.516;2022-12-29T05:51:31;10.40;99.90
8338;DHT22;4206;48.634;9.516;2022-12-29T05:53:57;10.40;99.90
8338;DHT22;4206;48.634;9.516;2022-12-29T05:56:23;10.50;99.90
8338;DHT22;4206;48.634;9.516;2022-12-29T05:58:48;10.40;99.90
8338;DHT22;4206;48.634;9.516;2022-12-29T06:01:14;10.40;99.90
8338;DHT22;4206;48.634;9.516;2022-12-29T06:03:40;10.50;99.90
8338;DHT22;4206;48.634;9.516;2022-12-29T06:06:05;10.50;99.90
8338;DHT22;4206;48.634;9.516;2022-12-29T06:08:31;10.50;99.90
8338;DHT22;4206;48.634;9.516;2022-12-29T06:10:57;10.60;99.90
8338;DHT22;4206;48.634;9.516;2022-12-29T06:13:22;10.70;99.90
8338;DHT22;4206;48.634;9.516;2022-12-29T06:15:49;10.60;99.90
8338;DHT22;4206;48.634;9.516;2022-12-29T06:18:15;10.70;99.90
8338;DHT22;4206;48.634;9.516;2022-12-29T06:20:40;10.60;99.90
8338;DHT22;4206;48.634;9.516;2022-12-29T06:23:06;10.70;99.90
8338;DHT22;4206;48.634;9.516;2022-12-29T06:25:32;10.70;99.90
8338;DHT22;4206;48.634;9.516;2022-12-29T06:27:59;10.60;99.90
8338;DHT22;4206;48.634;9.516;2022-12-29T06:30:25;10.60;99.90
8338;DHT22;4206;48.634;9.516;2022-12-29T06:32:51;10.60;99.90
8338;DHT22;4206;48.634;9.516;2022-12-29T06:35:17;10.70;99.90
8338;DHT22;4206;48.634;9.516;2022-12-29T06:37:43;10.70;99.90
8338;DHT22;4206;48.634;9.516;2022-12-29T06:40:09;10.80;99.90
8338;DHT22;4206;48.634;9.516;2022-12-29T06:42:35;10.70;99.90
8338;DHT22;4206;48.634;9.516;2022-12-29T06:45:01;10.80;99.90
8338;DHT22;4206;48.634;9.516;2022-12-29T06:47:26;10.80;99.90
8338;DHT22;4206;48.634;9.516;2022-12-29T06:49:52;11.00;99.90
8338;DHT22;4206;48.634;9.516;2022-12-29T06:52:17;11.00;99.90
8338;DHT22;4206;48.634;9.516;2022-12-29T06:54:43;10.80;99.90
8338;DHT22;4206;48.634;9.516;2022-12-29T06:57:09;10.90;99.90
8338;DHT22;4206;48.634;9.516;2022-12-29T06:59:34;11.20;99.90
8338;DHT22;4206;48.634;9.516;2022-12-29T07:02:00;11.10;99.90
8338;DHT22;4206;48.634;9.516;2022-12-29T07:04:27;11.10;99.90
8338;DHT22;4206;48.634;9.516;2022-12-29T07:06:53;11.20;99.90
8338;DHT22;4206;48.634;9.516;2022-12-29T07:09:19;11.30;99.90
8338;DHT22;4206;48.634;9.516;2022-12-29T07:11:44;11.30;99.90
8338;DHT22;4206;48.634;9.516;2022-12-29T07:14:11;11.10;99.90
8338;DHT22;4206;48.634;9.516;2022-12-29T07:16:36;11.20;99.90
8338;DHT22;4206;48.634;9.516;2022-12-29T07:19:02;11.10;99.90
8338;DHT22;4206;48.634;9.516;2022-12-29T07:21:28;11.00;99.90
8338;DHT22;4206;48.634;9.516;2022-12-29T07:23:54;11.00;99.90
8338;DHT22;4206;48.634;9.516;2022-12-29T07:26:20;11.00;99.90
8338;DHT22;4206;48.634;9.516;2022-12-29T07:28:46;10.90;99.90
8338;DHT22;4206;48.634;9.516;2022-12-29T07:31:14;11.00;99.90
8338;DHT22;4206;48.634;9.516;2022-12-29T07:33:41;10.90;99.90
8338;DHT22;4206;48.634;9.516;2022-12-29T07:36:07;11.00;99.90
8338;DHT22;4206;48.634;9.516;2022-12-29T07:38:32;11.00;99.90
8338;DHT22;4206;48.634;9.516;2022-12-29T07:40:58;11.00;99.90
8338;DHT22;4206;48.634;9.516;2022-12-29T07:43:24;11.00;99.90
8338;DHT22;4206;48.634;9.516;2022-12-29T07:45:50;11.00;99.90
8338;DHT22;4206;48.634;9.516;2022-12-29T07:48:15;11.00;99.90
8338;DHT22;4206;48.634;9.516;2022-12-29T07:50:41;11.00;99.90
8338;DHT22;4206;48.634;9.516;2022-12-29T07:53:07;11.00;99.90
8338;DHT22;4206;48.634;9.516;2022-12-29T07:55:32;11.00;99.90
8338;DHT22;4206;48.634;9.516;2022-12-29T07:57:58;10.90;99.90
8338;DHT22;4206;48.634;9.516;2022-12-29T08:00:24;11.00;99.90
8338;DHT22;4206;48.634;9.516;2022-12-29T08:02:49;11.20;99.90
8338;DHT22;4206;48.634;9.516;2022-12-29T08:05:15;11.20;99.90
8338;DHT22;4206;48.634;9.516;2022-12-29T08:07:43;11.30;99.90
8338;DHT22;4206;48.634;9.516;2022-12-29T08:10:09;11.40;99.90
8338;DHT22;4206;48.634;9.516;2022-12-29T08:12:35;11.40;99.90
8338;DHT22;4206;48.634;9.516;2022-12-29T08:15:00;11.40;99.90
8338;DHT22;4206;48.634;9.516;2022-12-29T08:17:26;11.60;99.90
8338;DHT22;4206;48.634;9.516;2022-12-29T08:19:52;11.80;99.90
8338;DHT22;4206;48.634;9.516;2022-12-29T08:22:18;11.70;99.90
8338;DHT22;4206;48.634;9.516;2022-12-29T08:24:43;11.80;99.90
8338;DHT22;4206;48.634;9.516;2022-12-29T08:27:09;11.90;99.90
8338;DHT22;4206;48.634;9.516;2022-12-29T08:29:35;12.00;99.90
8338;DHT22;4206;48.634;9.516;2022-12-29T08:32:00;12.00;99.90
8338;DHT22;4206;48.634;9.516;2022-12-29T08:34:26;12.20;99.90
8338;DHT22;4206;48.634;9.516;2022-12-29T08:36:52;12.20;99.90
8338;DHT22;4206;48.634;9.516;2022-12-29T08:39:17;12.20;99.90
8338;DHT22;4206;48.634;9.516;2022-12-29T08:41:43;12.30;99.90
8338;DHT22;4206;48.634;9.516;2022-12-29T08:44:11;12.40;99.90
8338;DHT22;4206;48.634;9.516;2022-12-29T08:46:37;12.30;99.90
8338;DHT22;4206;48.634;9.516;2022-12-29T08:49:03;12.20;99.90
8338;DHT22;4206;48.634;9.516;2022-12-29T08:51:28;12.00;99.90
8338;DHT22;4206;48.634;9.516;2022-12-29T08:53:54;11.90;99.90
8338;DHT22;4206;48.634;9.516;2022-12-29T08:56:20;11.80;99.90
8338;DHT22;4206;48.634;9.516;2022-12-29T08:58:46;11.80;99.90
8338;DHT22;4206;48.634;9.516;2022-12-29T09:01:11;11.80;99.90
8338;DHT22;4206;48.634;9.516;2022-12-29T09:03:37;11.90;99.90
8338;DHT22;4206;48.634;9.516;2022-12-29T09:06:03;11.90;99.90
8338;DHT22;4206;48.634;9.516;2022-12-29T09:08:29;12.00;99.90
8338;DHT22;4206;48.634;9.516;2022-12-29T09:10:54;12.10;99.90
8338;DHT22;4206;48.634;9.516;2022-12-29T09:13:20;12.20;99.90
8338;DHT22;4206;48.634;9.516;2022-12-29T09:15:45;12.40;99.90
8338;DHT22;4206;48.634;9.516;2022-12-29T09:18:12;12.40;99.90
8338;DHT22;4206;48.634;9.516;2022-12-29T09:20:37;12.40;99.90
8338;DHT22;4206;48.634;9.516;2022-12-29T09:23:04;12.30;99.90
8338;DHT22;4206;48.634;9.516;2022-12-29T09:25:31;12.40;99.90
8338;DHT22;4206;48.634;9.516;2022-12-29T09:27:57;12.40;99.90
8338;DHT22;4206;48.634;9.516;2022-12-29T09:30:23;12.50;99.90
8338;DHT22;4206;48.634;9.516;2022-12-29T09:32:49;12.60;99.90
8338;DHT22;4206;48.634;9.516;2022-12-29T09:35:15;12.50;99.90
8338;DHT22;4206;48.634;9.516;2022-12-29T09:37:42;12.50;99.90
8338;DHT22;4206;48.634;9.516;2022-12-29T09:40:19;12.40;99.90
8338;DHT22;4206;48.634;9.516;2022-12-29T09:42:55;12.50;99.90
8338;DHT22;4206;48.634;9.516;2022-12-29T09:45:43;12.40;99.90
8338;DHT22;4206;48.634;9.516;2022-12-29T09:48:22;12.20;99.90
8338;DHT22;4206;48.634;9.516;2022-12-29T09:50:52;12.30;99.90
8338;DHT22;4206;48.634;9.516;2022-12-29T09:53:38;12.30;99.90
8338;DHT22;4206;48.634;9.516;2022-12-29T09:56:05;12.30;99.90
8338;DHT22;4206;48.634;9.516;2022-12-29T09:58:49;12.30;99.90
8338;DHT22;4206;48.634;9.516;2022-12-29T10:03:54;12.50;99.90
8338;DHT22;4206;48.634;9.516;2022-12-29T10:11:57;12.70;99.90
8338;DHT22;4206;48.634;9.516;2022-12-29T10:14:38;12.80;99.90
8338;DHT22;4206;48.634;9.516;2022-12-29T10:22:38;12.80;99.90
8338;DHT22;4206;48.634;9.516;2022-12-29T10:25:15;12.80;99.90
8338;DHT22;4206;48.634;9.516;2022-12-29T10:27:42;12.80;99.90
8338;DHT22;4206;48.634;9.516;2022-12-29T10:30:12;12.70;99.90
8338;DHT22;4206;48.634;9.516;2022-12-29T10:35:17;12.70;99.90
8338;DHT22;4206;48.634;9.516;2022-12-29T10:40:27;12.60;99.90
8338;DHT22;4206;48.634;9.516;2022-12-29T10:42:57;12.70;99.90
8338;DHT22;4206;48.634;9.516;2022-12-29T10:45:28;12.60;99.90
8338;DHT22;4206;48.634;9.516;2022-12-29T10:48:09;12.50;99.90
8338;DHT22;4206;48.634;9.516;2022-12-29T10:50:37;12.40;99.90
8338;DHT22;4206;48.634;9.516;2022-12-29T10:53:10;12.60;99.90
8338;DHT22;4206;48.634;9.516;2022-12-29T10:55:42;12.40;99.90
8338;DHT22;4206;48.634;9.516;2022-12-29T10:58:11;12.40;99.90
8338;DHT22;4206;48.634;9.516;2022-12-29T11:00:37;12.40;99.90
8338;DHT22;4206;48.634;9.516;2022-12-29T11:08:21;12.30;99.90
8338;DHT22;4206;48.634;9.516;2022-12-29T11:10:58;12.30;99.90
8338;DHT22;4206;48.634;9.516;2022-12-29T11:13:26;12.30;99.90
8338;DHT22;4206;48.634;9.516;2022-12-29T11:15:52;12.30;99.90
8338;DHT22;4206;48.634;9.516;2022-12-29T11:20:47;12.50;99.90
8338;DHT22;4206;48.634;9.516;2022-12-29T11:23:29;12.60;99.90
8338;DHT22;4206;48.634;9.516;2022-12-29T11:28:38;12.70;99.90
8338;DHT22;4206;48.634;9.516;2022-12-29T11:31:05;12.90;99.90
8338;DHT22;4206;48.634;9.516;2022-12-29T11:33:34;13.00;99.90
8338;DHT22;4206;48.634;9.516;2022-12-29T11:38:39;13.40;99.90
8338;DHT22;4206;48.634;9.516;2022-12-29T11:41:06;13.40;99.90
8338;DHT22;4206;48.634;9.516;2022-12-29T11:43:38;13.30;99.90
8338;DHT22;4206;48.634;9.516;2022-12-29T11:46:05;13.20;99.90
8338;DHT22;4206;48.634;9.516;2022-12-29T11:48:38;13.10;99.90
8338;DHT22;4206;48.634;9.516;2022-12-29T11:51:04;13.10;99.90
8338;DHT22;4206;48.634;9.516;2022-12-29T11:53:42;13.10;99.90
8338;DHT22;4206;48.634;9.516;2022-12-29T11:56:12;13.00;99.90
8338;DHT22;4206;48.634;9.516;2022-12-29T11:58:39;13.10;99.90
8338;DHT22;4206;48.634;9.516;2022-12-29T12:01:18;13.10;99.90
8338;DHT22;4206;48.634;9.516;2022-12-29T12:03:59;13.20;99.90
8338;DHT22;4206;48.634;9.516;2022-12-29T12:06:27;13.20;99.90
8338;DHT22;4206;48.634;9.516;2022-12-29T12:08:57;13.40;99.90
8338;DHT22;4206;48.634;9.516;2022-12-29T12:11:36;13.40;99.90
8338;DHT22;4206;48.634;9.516;2022-12-29T12:14:20;13.40;99.90
8338;DHT22;4206;48.634;9.516;2022-12-29T12:16:53;13.20;99.90
8338;DHT22;4206;48.634;9.516;2022-12-29T12:22:01;12.90;99.90
8338;DHT22;4206;48.634;9.516;2022-12-29T12:24:36;12.80;99.90
8338;DHT22;4206;48.634;9.516;2022-12-29T13:01:42;12.60;99.90
8338;DHT22;4206;48.634;9.516;2022-12-29T13:06:55;12.40;99.90
8338;DHT22;4206;48.634;9.516;2022-12-29T13:17:46;12.30;99.90
8338;DHT22;4206;48.634;9.516;2022-12-29T13:20:28;12.20;99.90
8338;DHT22;4206;48.634;9.516;2022-12-29T13:36:08;12.00;99.90
8338;DHT22;4206;48.634;9.516;2022-12-29T13:38:39;12.00;99.90
8338;DHT22;4206;48.634;9.516;2022-12-29T13:41:12;12.00;99.90
8338;DHT22;4206;48.634;9.516;2022-12-29T13:43:42;12.00;99.90
8338;DHT22;4206;48.634;9.516;2022-12-29T13:46:13;12.10;99.90
8338;DHT22;4206;48.634;9.516;2022-12-29T13:48:58;12.10;99.90
8338;DHT22;4206;48.634;9.516;2022-12-29T13:51:25;12.10;99.90
8338;DHT22;4206;48.634;9.516;2022-12-29T13:56:31;12.10;99.90
8338;DHT22;4206;48.634;9.516;2022-12-29T14:04:13;12.30;99.90
8338;DHT22;4206;48.634;9.516;2022-12-29T14:06:39;12.30;99.90
8338;DHT22;4206;48.634;9.516;2022-12-29T14:11:51;12.30;99.90
8338;DHT22;4206;48.634;9.516;2022-12-29T14:14:19;12.30;99.90
8338;DHT22;4206;48.634;9.516;2022-12-29T14:16:46;12.40;99.90
8338;DHT22;4206;48.634;9.516;2022-12-29T14:21:54;12.40;99.90
8338;DHT22;4206;48.634;9.516;2022-12-29T14:29:44;12.30;99.90
8338;DHT22;4206;48.634;9.516;2022-12-29T14:34:53;12.20;99.90
8338;DHT22;4206;48.634;9.516;2022-12-29T14:37:35;12.10;99.90
8338;DHT22;4206;48.634;9.516;2022-12-29T14:42:29;12.10;99.90
8338;DHT22;4206;48.634;9.516;2022-12-29T14:47:42;12.10;99.90
8338;DHT22;4206;48.634;9.516;2022-12-29T14:50:15;12.20;99.90
8338;DHT22;4206;48.634;9.516;2022-12-29T14:52:49;12.00;99.90
8338;DHT22;4206;48.634;9.516;2022-12-29T14:57:44;12.20;99.90
8338;DHT22;4206;48.634;9.516;2022-12-29T15:00:15;12.00;99.90
8338;DHT22;4206;48.634;9.516;2022-12-29T15:02:45;11.90;99.90
8338;DHT22;4206;48.634;9.516;2022-12-29T15:05:35;11.80;99.90
8338;DHT22;4206;48.634;9.516;2022-12-29T15:08:03;11.80;99.90
8338;DHT22;4206;48.634;9.516;2022-12-29T15:10:37;11.70;99.90
8338;DHT22;4206;48.634;9.516;2022-12-29T15:13:05;11.60;99.90
8338;DHT22;4206;48.634;9.516;2022-12-29T15:15:38;11.50;99.90
8338;DHT22;4206;48.634;9.516;2022-12-29T15:20:51;11.30;99.90
8338;DHT22;4206;48.634;9.516;2022-12-29T15:23:18;11.20;99.90
8338;DHT22;4206;48.634;9.516;2022-12-29T15:28:21;11.10;99.90
8338;DHT22;4206;48.634;9.516;2022-12-29T15:31:01;11.10;99.90
8338;DHT22;4206;48.634;9.516;2022-12-29T15:33:28;11.00;99.90
8338;DHT22;4206;48.634;9.516;2022-12-29T15:35:56;11.00;99.90
8338;DHT22;4206;48.634;9.516;2022-12-29T15:38:24;11.00;99.90
8338;DHT22;4206;48.634;9.516;2022-12-29T15:40:56;10.90;99.90
8338;DHT22;4206;48.634;9.516;2022-12-29T15:43:41;10.80;99.90
8338;DHT22;4206;48.634;9.516;2022-12-29T15:46:12;10.70;99.90
8338;DHT22;4206;48.634;9.516;2022-12-29T15:48:38;10.70;99.90
8338;DHT22;4206;48.634;9.516;2022-12-29T15:53:52;10.60;99.90
8338;DHT22;4206;48.634;9.516;2022-12-29T15:56:19;10.60;99.90
8338;DHT22;4206;48.634;9.516;2022-12-29T15:58:48;10.40;99.90
8338;DHT22;4206;48.634;9.516;2022-12-29T16:01:23;10.40;99.90
8338;DHT22;4206;48.634;9.516;2022-12-29T16:03:52;10.30;99.90
8338;DHT22;4206;48.634;9.516;2022-12-29T16:06:35;10.30;99.90
8338;DHT22;4206;48.634;9.516;2022-12-29T16:13:58;10.20;99.90
8338;DHT22;4206;48.634;9.516;2022-12-29T16:16:29;10.10;99.90
8338;DHT22;4206;48.634;9.516;2022-12-29T16:18:56;10.20;99.90
8338;DHT22;4206;48.634;9.516;2022-12-29T16:21:26;10.10;99.90
8338;DHT22;4206;48.634;9.516;2022-12-29T16:23:55;10.10;99.90
8338;DHT22;4206;48.634;9.516;2022-12-29T16:26:23;10.10;99.90
8338;DHT22;4206;48.634;9.516;2022-12-29T16:28:54;10.10;99.90
8338;DHT22;4206;48.634;9.516;2022-12-29T16:31:25;10.10;99.90
8338;DHT22;4206;48.634;9.516;2022-12-29T16:33:54;10.10;99.90
8338;DHT22;4206;48.634;9.516;2022-12-29T16:38:49;10.30;99.90
8338;DHT22;4206;48.634;9.516;2022-12-29T16:41:31;10.30;99.90
8338;DHT22;4206;48.634;9.516;2022-12-29T16:44:15;10.30;99.90
8338;DHT22;4206;48.634;9.516;2022-12-29T16:46:58;10.20;99.90
8338;DHT22;4206;48.634;9.516;2022-12-29T16:49:24;10.20;99.90
8338;DHT22;4206;48.634;9.516;2022-12-29T16:51:51;10.20;99.90
8338;DHT22;4206;48.634;9.516;2022-12-29T16:54:23;10.20;99.90
8338;DHT22;4206;48.634;9.516;2022-12-29T16:56:49;10.10;99.90
8338;DHT22;4206;48.634;9.516;2022-12-29T17:01:58;10.20;99.90
8338;DHT22;4206;48.634;9.516;2022-12-29T17:04:24;10.10;99.90
8338;DHT22;4206;48.634;9.516;2022-12-29T17:06:50;10.10;99.90
8338;DHT22;4206;48.634;9.516;2022-12-29T17:09:21;10.10;99.90
8338;DHT22;4206;48.634;9.516;2022-12-29T17:11:49;10.10;99.90
8338;DHT22;4206;48.634;9.516;2022-12-29T17:14:40;10.10;99.90
8338;DHT22;4206;48.634;9.516;2022-12-29T17:17:15;10.20;99.90
8338;DHT22;4206;48.634;9.516;2022-12-29T17:19:44;10.20;99.90
8338;DHT22;4206;48.634;9.516;2022-12-29T17:22:21;10.20;99.90
8338;DHT22;4206;48.634;9.516;2022-12-29T17:24:50;10.20;99.90
8338;DHT22;4206;48.634;9.516;2022-12-29T17:27:23;10.10;99.90
8338;DHT22;4206;48.634;9.516;2022-12-29T17:29:49;10.10;99.90
8338;DHT22;4206;48.634;9.516;2022-12-29T17:32:16;10.20;99.90
8338;DHT22;4206;48.634;9.516;2022-12-29T17:34:42;10.00;99.90
8338;DHT22;4206;48.634;9.516;2022-12-29T17:39:48;10.10;99.90
8338;DHT22;4206;48.634;9.516;2022-12-29T17:42:13;10.00;99.90
8338;DHT22;4206;48.634;9.516;2022-12-29T17:44:39;10.20;99.90
8338;DHT22;4206;48.634;9.516;2022-12-29T17:47:07;10.10;99.90
8338;DHT22;4206;48.634;9.516;2022-12-29T17:49:34;10.10;99.90
8338;DHT22;4206;48.634;9.516;2022-12-29T17:52:00;10.10;99.90
8338;DHT22;4206;48.634;9.516;2022-12-29T17:54:25;10.00;99.90
8338;DHT22;4206;48.634;9.516;2022-12-29T17:56:51;10.00;99.90
8338;DHT22;4206;48.634;9.516;2022-12-29T17:59:17;9.90;99.90
8338;DHT22;4206;48.634;9.516;2022-12-29T18:01:45;10.00;99.90
8338;DHT22;4206;48.634;9.516;2022-12-29T18:04:13;9.90;99.90
8338;DHT22;4206;48.634;9.516;2022-12-29T18:06:39;10.00;99.90
8338;DHT22;4206;48.634;9.516;2022-12-29T18:09:05;9.90;99.90
8338;DHT22;4206;48.634;9.516;2022-12-29T18:11:33;9.90;99.90
8338;DHT22;4206;48.634;9.516;2022-12-29T18:13:59;9.90;99.90
8338;DHT22;4206;48.634;9.516;2022-12-29T18:16:25;9.90;99.90
8338;DHT22;4206;48.634;9.516;2022-12-29T18:18:51;9.90;99.90
8338;DHT22;4206;48.634;9.516;2022-12-29T18:21:19;9.80;99.90
8338;DHT22;4206;48.634;9.516;2022-12-29T18:23:46;9.90;99.90
8338;DHT22;4206;48.634;9.516;2022-12-29T18:26:17;9.70;99.90
8338;DHT22;4206;48.634;9.516;2022-12-29T18:28:43;9.70;99.90
8338;DHT22;4206;48.634;9.516;2022-12-29T18:31:26;9.70;99.90
8338;DHT22;4206;48.634;9.516;2022-12-29T18:33:53;9.70;99.90
8338;DHT22;4206;48.634;9.516;2022-12-29T18:36:19;9.60;99.90
8338;DHT22;4206;48.634;9.516;2022-12-29T18:38:46;9.50;99.90
8338;DHT22;4206;48.634;9.516;2022-12-29T18:41:17;9.50;99.90
8338;DHT22;4206;48.634;9.516;2022-12-29T18:43:43;9.50;99.90
8338;DHT22;4206;48.634;9.516;2022-12-29T18:46:09;9.50;99.90
8338;DHT22;4206;48.634;9.516;2022-12-29T18:48:35;9.40;99.90
8338;DHT22;4206;48.634;9.516;2022-12-29T18:51:00;9.40;99.90
8338;DHT22;4206;48.634;9.516;2022-12-29T18:53:26;9.40;99.90
8338;DHT22;4206;48.634;9.516;2022-12-29T18:55:54;9.40;99.90
8338;DHT22;4206;48.634;9.516;2022-12-29T18:58:21;9.40;99.90
8338;DHT22;4206;48.634;9.516;2022-12-29T19:00:47;9.40;99.90
8338;DHT22;4206;48.634;9.516;2022-12-29T19:03:15;9.40;99.90
8338;DHT22;4206;48.634;9.516;2022-12-29T19:05:42;9.40;99.90
8338;DHT22;4206;48.634;9.516;2022-12-29T19:08:09;9.40;99.90
8338;DHT22;4206;48.634;9.516;2022-12-29T19:10:36;9.40;99.90
8338;DHT22;4206;48.634;9.516;2022-12-29T19:13:02;9.30;99.90
8338;DHT22;4206;48.634;9.516;2022-12-29T19:15:36;9.40;99.90
8338;DHT22;4206;48.634;9.516;2022-12-29T19:18:04;9.50;99.90